Time;durP1;ratioP1;P1;durP2;ratioP2;P2;SDS_P1;SDS_P2;PMS_P1;PMS_P2;Temp;Humidity;BMP_temperature;BMP_pressure;BME280_temperature;BME280_humidity;BME280_pressure;Samples;Min_cycle;Max_cycle;Signal;HPM_P1;HPM_P2
2022/03/15 00:00:24;;;;;;;12.10;10.30;;;8.80;90.00;;;;;;6201014;23;20418;-89
2022/03/15 00:02:51;;;;;;;6.97;6.23;;;8.80;90.10;;;;;;6190158;23;20398;-89
2022/03/15 00:05:20;;;;;;;11.40;9.60;;;8.70;90.10;;;;;;6188719;23;20442;-89
2022/03/15 00:07:47;;;;;;;17.50;9.70;;;8.70;90.40;;;;;;6213125;23;20393;-89
2022/03/15 00:10:15;;;;;;;16.83;9.30;;;8.60;90.60;;;;;;6213499;23;20448;-89
2022/03/15 00:12:42;;;;;;;20.20;10.80;;;8.60;90.60;;;;;;6198571;23;20433;-89
2022/03/15 00:15:10;;;;;;;11.73;9.30;;;8.60;90.70;;;;;;6189173;23;20413;-89
2022/03/15 00:17:37;;;;;;;12.73;9.20;;;8.50;90.90;;;;;;6188999;23;20394;-89
2022/03/15 00:20:04;;;;;;;10.03;8.03;;;8.40;91.10;;;;;;6201996;23;20430;-89
2022/03/15 00:22:36;;;;;;;10.13;8.70;;;8.50;91.20;;;;;;6191862;23;20484;-89
2022/03/15 00:25:03;;;;;;;12.27;9.07;;;8.50;91.30;;;;;;6190703;23;20433;-88
2022/03/15 00:27:30;;;;;;;9.60;7.50;;;8.50;91.50;;;;;;6196396;23;20410;-89
2022/03/15 00:29:57;;;;;;;12.27;8.60;;;8.50;91.50;;;;;;6192160;23;20432;-89
2022/03/15 00:32:26;;;;;;;6.80;6.10;;;8.50;91.60;;;;;;6196561;23;20477;-89
2022/03/15 00:34:53;;;;;;;9.13;7.90;;;8.50;91.60;;;;;;6186602;23;21235;-89
2022/03/15 00:37:20;;;;;;;8.50;7.53;;;8.40;91.60;;;;;;6186871;23;20405;-89
2022/03/15 00:39:49;;;;;;;14.20;8.30;;;8.40;91.70;;;;;;6185182;23;20449;-89
2022/03/15 00:42:16;;;;;;;11.10;9.00;;;8.40;91.80;;;;;;6185076;23;20460;-89
2022/03/15 00:44:43;;;;;;;14.70;7.70;;;8.40;91.80;;;;;;6185347;23;20757;-90
2022/03/15 00:47:10;;;;;;;8.70;7.27;;;8.30;92.00;;;;;;6185991;23;20402;-89
2022/03/15 00:49:37;;;;;;;11.47;7.10;;;8.30;92.20;;;;;;6185322;23;20834;-89
2022/03/15 00:52:04;;;;;;;8.23;7.30;;;8.30;92.40;;;;;;6185172;23;20394;-89
2022/03/15 00:54:31;;;;;;;7.90;7.17;;;8.30;92.20;;;;;;6186891;23;20417;-89
2022/03/15 00:56:59;;;;;;;10.50;7.30;;;8.30;92.10;;;;;;6187087;23;20406;-89
2022/03/15 00:59:26;;;;;;;9.83;7.17;;;8.30;92.20;;;;;;6188028;23;20422;-89
2022/03/15 01:01:52;;;;;;;9.63;7.53;;;8.30;92.30;;;;;;6212425;23;20414;-88
2022/03/15 01:04:19;;;;;;;8.17;7.37;;;8.30;92.20;;;;;;6214350;23;20394;-89
2022/03/15 01:06:46;;;;;;;8.57;7.37;;;8.40;92.20;;;;;;6214214;23;20484;-89
2022/03/15 01:09:13;;;;;;;9.93;7.03;;;8.40;92.30;;;;;;6213928;23;20414;-90
2022/03/15 01:11:40;;;;;;;8.53;6.40;;;8.40;92.40;;;;;;6204496;23;20413;-89
2022/03/15 01:14:08;;;;;;;8.80;7.90;;;8.40;92.20;;;;;;6213710;23;20462;-89
2022/03/15 01:16:34;;;;;;;14.50;9.80;;;8.40;92.10;;;;;;6214334;23;20416;-89
2022/03/15 01:19:01;;;;;;;9.77;7.23;;;8.40;92.00;;;;;;6213777;23;20409;-89
2022/03/15 01:21:29;;;;;;;8.17;7.40;;;8.40;92.10;;;;;;6209713;23;20406;-89
2022/03/15 01:23:55;;;;;;;9.07;7.10;;;8.30;92.20;;;;;;6191320;23;20406;-90
2022/03/15 01:26:24;;;;;;;10.33;7.43;;;8.20;92.50;;;;;;6187857;23;20438;-90
2022/03/15 01:28:51;;;;;;;8.40;7.70;;;8.20;92.70;;;;;;6189336;23;20398;-90
2022/03/15 01:31:19;;;;;;;8.87;7.40;;;8.20;92.70;;;;;;6187385;23;20412;-89
2022/03/15 01:33:45;;;;;;;10.00;7.43;;;8.20;92.70;;;;;;6188741;23;20433;-89
2022/03/15 01:36:12;;;;;;;13.43;8.20;;;8.30;92.80;;;;;;6189304;23;20433;-89
2022/03/15 01:38:39;;;;;;;9.67;6.93;;;8.20;92.80;;;;;;6190626;23;20409;-89
2022/03/15 01:41:05;;;;;;;9.63;8.23;;;8.20;92.90;;;;;;6192145;23;20398;-90
2022/03/15 01:43:33;;;;;;;9.10;7.73;;;8.30;93.00;;;;;;6212464;23;20465;-89
2022/03/15 01:46:00;;;;;;;9.00;8.20;;;8.20;93.00;;;;;;6205497;23;20441;-89
2022/03/15 01:48:28;;;;;;;9.83;8.70;;;8.20;93.00;;;;;;6191836;23;20409;-90
2022/03/15 01:50:55;;;;;;;9.50;8.07;;;8.20;93.10;;;;;;6189595;23;20433;-89
2022/03/15 01:53:22;;;;;;;8.20;7.50;;;8.20;93.10;;;;;;6187664;23;20406;-89
2022/03/15 01:55:49;;;;;;;9.87;7.70;;;8.20;93.20;;;;;;6187324;23;20410;-90
2022/03/15 01:58:16;;;;;;;9.10;8.00;;;8.20;93.20;;;;;;6187488;23;20771;-90
2022/03/15 02:00:43;;;;;;;13.17;8.60;;;8.20;93.20;;;;;;6186924;23;20432;-89
2022/03/15 02:03:10;;;;;;;13.20;9.03;;;8.20;93.30;;;;;;6186354;23;20416;-88
2022/03/15 02:05:38;;;;;;;11.50;8.17;;;8.30;93.50;;;;;;6194660;23;20437;-87
2022/03/15 02:08:10;;;;;;;12.43;7.40;;;8.20;93.50;;;;;;6201559;23;20406;-87
2022/03/15 02:10:36;;;;;;;8.57;7.70;;;8.20;93.60;;;;;;6196731;23;20506;-90
2022/03/15 02:13:03;;;;;;;11.90;8.07;;;8.20;93.60;;;;;;6187351;23;20452;-89
2022/03/15 02:15:30;;;;;;;11.17;8.33;;;8.20;93.70;;;;;;6187315;23;20904;-89
2022/03/15 02:17:58;;;;;;;10.70;8.30;;;8.20;93.80;;;;;;6204728;23;20394;-89
2022/03/15 02:20:26;;;;;;;8.40;7.60;;;8.20;93.90;;;;;;6214530;23;20433;-90
2022/03/15 02:22:53;;;;;;;15.77;8.03;;;8.10;93.90;;;;;;6196445;23;20398;-89
2022/03/15 02:25:19;;;;;;;8.40;7.60;;;8.20;94.10;;;;;;6188689;23;20549;-89
2022/03/15 02:27:46;;;;;;;8.60;7.40;;;8.20;94.00;;;;;;6201419;23;20386;-87
2022/03/15 02:30:13;;;;;;;7.70;7.00;;;8.20;94.10;;;;;;6194170;23;20429;-87
2022/03/15 02:32:42;;;;;;;10.47;7.40;;;8.20;94.00;;;;;;6188017;23;20413;-88
2022/03/15 02:35:09;;;;;;;9.30;8.40;;;8.20;94.10;;;;;;6187359;23;20465;-88
2022/03/15 02:37:37;;;;;;;12.17;8.60;;;8.20;94.00;;;;;;6187780;23;20421;-88
2022/03/15 02:40:05;;;;;;;12.57;7.87;;;8.10;94.00;;;;;;6191618;23;20426;-88
2022/03/15 02:42:32;;;;;;;9.20;7.87;;;8.10;94.20;;;;;;6188319;23;20412;-87
2022/03/15 02:44:58;;;;;;;10.60;8.80;;;8.10;94.20;;;;;;6187100;23;20873;-87
2022/03/15 02:47:25;;;;;;;8.13;7.27;;;8.10;94.30;;;;;;6187414;23;20964;-88
2022/03/15 02:49:52;;;;;;;9.53;7.43;;;8.10;94.20;;;;;;6191010;23;20434;-87
2022/03/15 02:52:18;;;;;;;7.70;7.00;;;8.10;94.10;;;;;;6190344;23;20955;-90
2022/03/15 02:54:46;;;;;;;9.10;6.90;;;8.10;94.30;;;;;;6194077;23;20394;-89
2022/03/15 02:57:13;;;;;;;11.50;8.43;;;8.00;94.50;;;;;;6188106;23;20407;-88
2022/03/15 02:59:40;;;;;;;9.63;8.33;;;8.00;94.50;;;;;;6188517;23;20947;-88
2022/03/15 03:02:08;;;;;;;8.00;7.20;;;8.00;94.50;;;;;;6187319;23;20401;-89
2022/03/15 03:04:34;;;;;;;11.77;8.97;;;8.00;94.40;;;;;;6209172;23;20410;-89
2022/03/15 03:07:02;;;;;;;9.30;8.40;;;8.00;94.50;;;;;;6202138;23;20450;-89
2022/03/15 03:09:29;;;;;;;9.23;8.27;;;8.00;94.50;;;;;;6187331;23;20433;-88
2022/03/15 03:11:57;;;;;;;8.37;7.57;;;8.00;94.50;;;;;;6187556;23;20464;-89
2022/03/15 03:14:24;;;;;;;11.00;7.73;;;8.00;94.60;;;;;;6190737;23;20406;-89
2022/03/15 03:16:51;;;;;;;9.27;8.33;;;8.00;94.50;;;;;;6194336;23;20406;-88
2022/03/15 03:19:18;;;;;;;8.67;7.60;;;7.90;94.70;;;;;;6195828;23;20433;-88
2022/03/15 03:21:45;;;;;;;8.83;7.40;;;7.90;94.70;;;;;;6192557;23;20773;-88
2022/03/15 03:24:15;;;;;;;8.50;7.60;;;7.90;94.70;;;;;;6188948;23;20730;-87
2022/03/15 03:26:41;;;;;;;15.00;8.00;;;7.90;94.80;;;;;;6188868;23;20437;-88
2022/03/15 03:29:10;;;;;;;14.00;7.80;;;7.90;95.10;;;;;;6188951;23;20426;-88
2022/03/15 03:31:37;;;;;;;10.60;8.50;;;7.90;94.90;;;;;;6213687;23;20413;-88
2022/03/15 03:34:04;;;;;;;12.80;7.10;;;7.90;94.90;;;;;;6213711;23;20441;-88
2022/03/15 03:36:32;;;;;;;8.93;7.83;;;8.00;95.10;;;;;;6213515;23;20401;-88
2022/03/15 03:38:59;;;;;;;8.40;7.50;;;7.90;95.20;;;;;;6202157;23;20429;-88
2022/03/15 03:41:26;;;;;;;10.53;7.80;;;7.90;95.20;;;;;;6193312;23;20909;-88
2022/03/15 03:43:52;;;;;;;10.10;7.57;;;7.90;95.30;;;;;;6190514;23;20417;-88
2022/03/15 03:46:21;;;;;;;9.13;7.80;;;8.00;95.30;;;;;;6189613;23;20498;-88
2022/03/15 03:48:50;;;;;;;8.50;7.50;;;8.00;95.10;;;;;;6188641;23;20403;-88
2022/03/15 03:51:17;;;;;;;8.10;7.40;;;7.90;95.20;;;;;;6181382;23;20458;-85
2022/03/15 03:53:44;;;;;;;10.80;7.90;;;8.00;95.30;;;;;;6187419;23;20489;-84
2022/03/15 03:56:11;;;;;;;9.60;7.47;;;8.00;95.20;;;;;;6201796;23;20394;-84
2022/03/15 03:58:38;;;;;;;8.70;7.57;;;7.90;95.30;;;;;;6204484;23;20401;-83
2022/03/15 04:01:04;;;;;;;10.63;7.77;;;8.00;95.40;;;;;;6186994;23;20430;-82
2022/03/15 04:03:33;;;;;;;9.63;8.83;;;7.90;95.40;;;;;;6189411;23;20402;-82
2022/03/15 04:06:04;;;;;;;10.70;7.53;;;7.90;95.60;;;;;;6189056;23;20437;-83
2022/03/15 04:08:32;;;;;;;9.07;7.80;;;7.90;95.80;;;;;;6189653;23;20857;-82
2022/03/15 04:10:59;;;;;;;8.87;7.90;;;7.90;96.00;;;;;;6186863;23;20948;-82
2022/03/15 04:13:26;;;;;;;9.93;8.00;;;7.80;96.00;;;;;;6186801;23;20884;-82
2022/03/15 04:15:54;;;;;;;9.20;8.30;;;7.80;96.10;;;;;;6188480;23;20476;-82
2022/03/15 04:18:20;;;;;;;10.33;7.43;;;7.90;96.40;;;;;;6187749;23;20406;-82
2022/03/15 04:20:48;;;;;;;8.60;7.80;;;7.80;96.40;;;;;;6186698;23;20422;-82
2022/03/15 04:23:15;;;;;;;8.00;7.20;;;7.70;96.60;;;;;;6186697;23;20406;-82
2022/03/15 04:25:42;;;;;;;9.90;8.00;;;7.70;96.70;;;;;;6187168;23;20410;-80
2022/03/15 04:28:09;;;;;;;9.60;7.70;;;7.70;96.70;;;;;;6189317;23;20698;-81
2022/03/15 04:30:36;;;;;;;13.90;8.23;;;7.70;96.80;;;;;;6189357;23;20434;-80
2022/03/15 04:33:03;;;;;;;9.63;7.97;;;7.60;96.80;;;;;;6188069;23;20409;-82
2022/03/15 04:35:30;;;;;;;12.63;8.30;;;7.60;97.10;;;;;;6192342;23;20416;-79
2022/03/15 04:37:58;;;;;;;10.10;7.40;;;7.60;97.00;;;;;;6193114;23;20402;-80
2022/03/15 04:40:25;;;;;;;9.40;8.17;;;7.60;97.10;;;;;;6188022;23;20422;-80
2022/03/15 04:42:52;;;;;;;12.73;8.30;;;7.60;97.40;;;;;;6196636;23;20406;-80
2022/03/15 04:45:19;;;;;;;11.10;7.67;;;7.60;97.60;;;;;;6199008;23;20476;-80
2022/03/15 04:47:46;;;;;;;14.87;8.60;;;7.50;97.60;;;;;;6192997;23;20449;-82
2022/03/15 04:50:13;;;;;;;9.77;8.50;;;7.60;97.90;;;;;;6190308;23;20441;-82
2022/03/15 04:52:40;;;;;;;12.80;9.37;;;7.60;97.90;;;;;;6188923;23;20410;-82
2022/03/15 04:55:09;;;;;;;9.93;7.60;;;7.50;97.90;;;;;;6187696;23;20436;-83
2022/03/15 04:57:36;;;;;;;11.57;8.00;;;7.50;97.90;;;;;;6186399;23;20765;-82
2022/03/15 05:00:09;;;;;;;8.60;7.30;;;7.50;97.90;;;;;;6190108;23;20426;-82
2022/03/15 05:02:36;;;;;;;16.90;9.13;;;7.60;97.80;;;;;;6189174;23;20480;-82
2022/03/15 05:05:03;;;;;;;9.77;7.30;;;7.60;97.60;;;;;;6193554;23;20460;-80
2022/03/15 05:07:30;;;;;;;11.23;8.33;;;7.60;97.80;;;;;;6189679;23;20452;-79
2022/03/15 05:12:42;;;;;;;10.00;8.00;;;7.60;97.90;;;;;;6185666;23;20386;-79
2022/03/15 05:15:09;;;;;;;10.10;9.10;;;7.50;97.90;;;;;;6184992;23;20437;-80
2022/03/15 05:17:36;;;;;;;12.27;9.97;;;7.40;98.10;;;;;;6185772;23;20920;-80
2022/03/15 05:20:05;;;;;;;9.67;8.67;;;7.40;98.60;;;;;;6188021;23;20422;-78
2022/03/15 05:22:32;;;;;;;13.93;8.47;;;7.40;99.00;;;;;;6192623;23;20408;-80
2022/03/15 05:24:58;;;;;;;18.17;10.73;;;7.40;99.20;;;;;;6186552;23;20931;-79
2022/03/15 05:27:25;;;;;;;15.70;10.63;;;7.40;99.30;;;;;;6189730;23;20473;-79
2022/03/15 05:29:53;;;;;;;14.27;10.10;;;7.50;99.30;;;;;;6190452;23;20430;-80
2022/03/15 05:32:20;;;;;;;12.30;10.57;;;7.50;99.40;;;;;;6190455;23;20421;-79
2022/03/15 05:34:47;;;;;;;15.03;10.57;;;7.50;99.40;;;;;;6190011;23;20445;-78
2022/03/15 05:37:14;;;;;;;13.03;10.50;;;7.50;99.50;;;;;;6194884;23;20771;-78
2022/03/15 05:39:41;;;;;;;15.77;11.20;;;7.50;99.60;;;;;;6185361;23;20426;-85
2022/03/15 05:42:09;;;;;;;16.97;9.37;;;7.50;99.30;;;;;;6183697;23;21075;-79
2022/03/15 05:44:36;;;;;;;13.03;10.40;;;7.50;99.30;;;;;;6194600;23;20418;-77
2022/03/15 05:47:04;;;;;;;16.90;9.10;;;7.50;99.30;;;;;;6189918;23;20826;-79
2022/03/15 05:49:31;;;;;;;15.70;10.47;;;7.40;99.30;;;;;;6184441;23;20518;-78
2022/03/15 05:51:58;;;;;;;9.87;8.60;;;7.40;99.50;;;;;;6185546;23;20390;-79
2022/03/15 05:54:24;;;;;;;15.90;11.27;;;7.40;99.60;;;;;;6186972;23;20374;-79
2022/03/15 05:56:51;;;;;;;17.60;12.43;;;7.40;99.70;;;;;;6191957;23;20400;-79
2022/03/15 05:59:18;;;;;;;13.60;8.90;;;7.40;99.60;;;;;;6191925;23;20390;-79
2022/03/15 06:01:44;;;;;;;15.73;11.47;;;7.40;99.50;;;;;;6191830;23;20423;-79
2022/03/15 06:04:12;;;;;;;12.77;11.20;;;7.50;99.50;;;;;;6198368;23;20402;-79
2022/03/15 06:06:39;;;;;;;14.80;9.83;;;7.50;99.50;;;;;;6192513;23;20437;-80
2022/03/15 06:09:06;;;;;;;22.03;9.33;;;7.50;99.40;;;;;;6188509;23;20402;-79
2022/03/15 06:11:35;;;;;;;13.30;9.90;;;7.50;98.90;;;;;;6184739;23;20892;-79
2022/03/15 06:14:01;;;;;;;14.60;8.77;;;7.60;98.90;;;;;;6182457;23;20449;-80
2022/03/15 06:16:28;;;;;;;10.27;9.27;;;7.60;98.60;;;;;;6183425;23;20476;-78
2022/03/15 06:18:55;;;;;;;16.53;10.73;;;7.70;98.50;;;;;;6182680;23;20734;-80
2022/03/15 06:21:23;;;;;;;19.47;8.70;;;7.70;98.30;;;;;;6185708;23;20745;-81
2022/03/15 06:23:50;;;;;;;13.07;8.40;;;7.70;97.90;;;;;;6186208;23;20418;-78
2022/03/15 06:26:18;;;;;;;12.33;8.53;;;7.80;97.90;;;;;;6184940;23;20417;-78
2022/03/15 06:28:45;;;;;;;14.60;9.20;;;7.80;97.90;;;;;;6186338;23;20545;-79
2022/03/15 06:31:14;;;;;;;15.27;8.60;;;7.80;97.70;;;;;;6184727;23;20779;-78
2022/03/15 06:33:40;;;;;;;11.50;8.77;;;7.80;97.50;;;;;;6191809;23;20468;-81
2022/03/15 06:36:11;;;;;;;16.53;9.30;;;7.80;97.60;;;;;;6198379;23;20417;-81
2022/03/15 06:38:40;;;;;;;14.23;9.20;;;7.80;97.40;;;;;;6195235;23;20398;-78
2022/03/15 06:41:07;;;;;;;16.07;10.20;;;7.90;97.30;;;;;;6204156;23;20425;-80
2022/03/15 06:43:34;;;;;;;14.40;10.97;;;7.90;97.30;;;;;;6202275;23;20460;-80
2022/03/15 06:46:01;;;;;;;15.63;10.63;;;8.00;97.30;;;;;;6193967;23;20417;-80
2022/03/15 06:48:28;;;;;;;18.13;11.80;;;8.00;97.20;;;;;;6200091;23;20438;-80
2022/03/15 06:50:55;;;;;;;14.93;9.83;;;8.10;96.90;;;;;;6197733;23;20429;-81
2022/03/15 06:53:22;;;;;;;19.03;10.07;;;8.10;96.70;;;;;;6196426;23;20398;-82
2022/03/15 06:55:50;;;;;;;19.67;10.03;;;8.10;96.30;;;;;;6197387;23;20391;-80
2022/03/15 06:58:18;;;;;;;14.43;9.30;;;8.10;96.30;;;;;;6196982;23;21095;-80
2022/03/15 07:00:44;;;;;;;17.97;10.13;;;8.20;96.30;;;;;;6194633;23;20429;-80
2022/03/15 07:03:11;;;;;;;16.70;9.70;;;8.30;96.00;;;;;;6195834;23;20402;-80
2022/03/15 07:05:38;;;;;;;17.40;10.27;;;8.30;95.80;;;;;;6195852;23;20418;-82
2022/03/15 07:08:06;;;;;;;32.40;10.77;;;8.40;96.00;;;;;;6195055;23;20449;-81
2022/03/15 07:10:33;;;;;;;19.27;10.60;;;8.40;95.80;;;;;;6194274;23;20434;-80
2022/03/15 07:13:01;;;;;;;12.80;8.43;;;8.50;95.80;;;;;;6192373;23;20410;-80
2022/03/15 07:15:28;;;;;;;16.10;9.30;;;8.50;95.30;;;;;;6200128;23;20473;-81
2022/03/15 07:17:56;;;;;;;13.77;9.70;;;8.50;95.30;;;;;;6205279;23;21147;-79
2022/03/15 07:20:25;;;;;;;11.03;8.30;;;8.50;95.20;;;;;;6202430;23;20963;-81
2022/03/15 07:22:52;;;;;;;13.40;8.67;;;8.60;95.10;;;;;;6197219;23;20410;-80
2022/03/15 07:25:20;;;;;;;9.70;8.33;;;8.60;95.00;;;;;;6198292;23;20612;-81
2022/03/15 07:27:47;;;;;;;12.00;8.50;;;8.60;94.70;;;;;;6195802;23;20444;-80
2022/03/15 07:30:16;;;;;;;9.50;8.50;;;8.50;94.60;;;;;;6199347;23;20476;-80
2022/03/15 07:32:43;;;;;;;12.60;8.17;;;8.50;94.70;;;;;;6206175;23;20481;-80
2022/03/15 07:35:10;;;;;;;13.37;9.63;;;8.50;94.90;;;;;;6195435;23;20770;-81
2022/03/15 07:37:37;;;;;;;13.30;9.97;;;8.60;95.00;;;;;;6195296;23;20410;-83
2022/03/15 07:40:05;;;;;;;12.00;10.17;;;8.60;94.90;;;;;;6195179;23;20433;-81
2022/03/15 07:42:32;;;;;;;17.20;8.87;;;8.70;94.80;;;;;;6194133;23;20413;-81
2022/03/15 07:45:00;;;;;;;15.87;9.00;;;8.70;94.50;;;;;;6195149;23;20414;-82
2022/03/15 07:47:28;;;;;;;15.43;9.20;;;8.80;94.60;;;;;;6195088;23;20446;-82
2022/03/15 07:49:54;;;;;;;17.57;9.37;;;8.90;94.30;;;;;;6195322;23;20556;-82
2022/03/15 07:52:21;;;;;;;13.33;8.53;;;9.00;94.20;;;;;;6196369;23;20722;-81
2022/03/15 07:54:48;;;;;;;14.20;9.03;;;9.00;94.10;;;;;;6195508;23;20429;-82
2022/03/15 07:57:15;;;;;;;12.10;8.80;;;9.00;94.00;;;;;;6196744;23;20402;-82
2022/03/15 07:59:42;;;;;;;17.43;8.63;;;9.10;94.00;;;;;;6194628;23;20426;-82
2022/03/15 08:02:09;;;;;;;13.63;8.80;;;9.10;93.80;;;;;;6201732;23;20417;-81
2022/03/15 08:04:37;;;;;;;17.93;9.27;;;9.20;93.80;;;;;;6198462;23;20402;-81
2022/03/15 08:07:04;;;;;;;14.40;9.30;;;9.20;93.60;;;;;;6195999;23;20437;-82
2022/03/15 08:09:31;;;;;;;16.50;9.57;;;9.30;93.60;;;;;;6196007;23;20460;-81
2022/03/15 08:11:57;;;;;;;18.50;9.23;;;9.30;93.70;;;;;;6195021;23;20453;-81
2022/03/15 08:14:24;;;;;;;10.50;8.77;;;9.30;93.70;;;;;;6194969;23;20456;-80
2022/03/15 08:16:51;;;;;;;14.37;8.30;;;9.30;93.60;;;;;;6195368;23;20488;-81
2022/03/15 08:19:17;;;;;;;12.77;7.73;;;9.40;93.40;;;;;;6195929;23;20406;-81
2022/03/15 08:21:45;;;;;;;9.57;8.53;;;9.50;93.20;;;;;;6196692;23;20433;-82
2022/03/15 08:24:13;;;;;;;14.03;9.47;;;9.60;93.10;;;;;;6204714;23;20390;-80
2022/03/15 08:26:40;;;;;;;10.63;8.07;;;9.70;92.70;;;;;;6198812;23;20477;-81
2022/03/15 08:29:07;;;;;;;12.90;7.67;;;9.70;92.50;;;;;;6195733;23;20448;-81
2022/03/15 08:31:34;;;;;;;9.93;7.43;;;9.90;92.40;;;;;;6194502;23;20429;-82
2022/03/15 08:34:00;;;;;;;16.27;8.07;;;10.00;91.40;;;;;;6194900;23;20405;-80
2022/03/15 08:36:27;;;;;;;14.57;8.70;;;10.20;91.30;;;;;;6194801;23;20417;-81
2022/03/15 08:38:56;;;;;;;13.63;7.77;;;10.30;90.80;;;;;;6194922;23;20402;-81
2022/03/15 08:41:22;;;;;;;12.97;7.40;;;10.30;90.60;;;;;;6195183;23;20430;-82
2022/03/15 08:43:49;;;;;;;23.60;7.57;;;10.50;90.80;;;;;;6194360;23;20744;-80
2022/03/15 08:46:16;;;;;;;16.67;7.57;;;10.40;90.30;;;;;;6194932;23;20414;-82
2022/03/15 08:48:42;;;;;;;13.27;8.87;;;10.40;90.60;;;;;;6197954;23;20515;-80
2022/03/15 08:51:09;;;;;;;15.47;9.40;;;10.50;90.70;;;;;;6207884;23;20431;-80
2022/03/15 08:53:36;;;;;;;11.87;8.37;;;10.60;90.00;;;;;;6195655;23;20433;-81
2022/03/15 08:56:05;;;;;;;16.37;8.37;;;10.60;90.20;;;;;;6194839;23;20406;-82
2022/03/15 08:58:32;;;;;;;19.23;9.40;;;10.60;90.30;;;;;;6195787;23;20402;-81
2022/03/15 09:00:59;;;;;;;12.83;9.10;;;10.80;90.00;;;;;;6195086;23;20430;-78
2022/03/15 09:03:25;;;;;;;14.20;7.97;;;10.90;89.80;;;;;;6196675;23;20410;-82
2022/03/15 09:05:52;;;;;;;19.00;8.70;;;11.00;89.40;;;;;;6195059;23;20496;-81
2022/03/15 09:08:19;;;;;;;13.17;9.57;;;11.10;89.20;;;;;;6203540;23;20438;-80
2022/03/15 09:10:47;;;;;;;15.87;10.43;;;11.20;88.80;;;;;;6204075;23;20426;-80
2022/03/15 09:13:16;;;;;;;16.27;8.50;;;11.20;88.40;;;;;;6203244;23;20472;-79
2022/03/15 09:15:42;;;;;;;12.40;9.47;;;11.10;88.60;;;;;;6199823;23;20407;-80
2022/03/15 09:18:09;;;;;;;16.50;9.50;;;11.10;89.00;;;;;;6205268;23;20402;-78
2022/03/15 09:20:36;;;;;;;15.20;9.43;;;11.10;88.40;;;;;;6204860;23;20516;-80
2022/03/15 09:23:02;;;;;;;16.50;8.60;;;11.20;87.90;;;;;;6197986;23;20433;-81
2022/03/15 09:25:31;;;;;;;17.43;10.40;;;11.20;88.20;;;;;;6197076;23;20406;-81
2022/03/15 09:27:57;;;;;;;14.43;8.30;;;11.20;88.40;;;;;;6194991;23;20995;-81
2022/03/15 09:30:30;;;;;;;18.03;9.10;;;11.20;88.80;;;;;;6194592;23;20435;-81
2022/03/15 09:32:57;;;;;;;11.70;8.47;;;11.30;89.70;;;;;;6193196;23;20496;-81
2022/03/15 09:35:24;;;;;;;11.63;7.80;;;11.40;89.60;;;;;;6193463;23;20434;-80
2022/03/15 09:37:51;;;;;;;9.10;8.03;;;11.40;90.00;;;;;;6198443;23;20414;-81
2022/03/15 09:40:22;;;;;;;8.97;7.57;;;11.40;90.10;;;;;;6199006;23;20421;-82
2022/03/15 09:42:50;;;;;;;13.43;9.03;;;11.40;90.60;;;;;;6195467;23;20390;-80
2022/03/15 09:45:22;;;;;;;10.50;8.40;;;11.50;90.90;;;;;;6196578;23;20402;-80
2022/03/15 09:47:55;;;;;;;9.93;8.13;;;11.50;91.20;;;;;;6197376;23;20453;-80
2022/03/15 09:50:23;;;;;;;9.60;8.57;;;11.50;91.30;;;;;;6185968;23;20844;-85
2022/03/15 09:52:51;;;;;;;10.80;7.30;;;11.60;92.00;;;;;;6190868;23;20414;-84
2022/03/15 09:55:18;;;;;;;14.00;7.83;;;11.60;91.80;;;;;;6192665;23;20402;-85
2022/03/15 09:57:44;;;;;;;11.83;6.87;;;11.50;92.00;;;;;;6187369;23;20465;-84
2022/03/15 10:00:13;;;;;;;9.53;6.67;;;11.50;92.00;;;;;;6187817;23;20477;-84
2022/03/15 10:02:40;;;;;;;7.77;6.23;;;11.40;92.30;;;;;;6188281;23;20418;-84
2022/03/15 10:05:09;;;;;;;10.83;6.60;;;11.60;92.70;;;;;;6191319;23;20408;-84
2022/03/15 10:07:36;;;;;;;10.83;7.67;;;11.60;92.50;;;;;;6193144;23;20437;-85
2022/03/15 10:10:06;;;;;;;7.67;5.53;;;11.60;92.20;;;;;;6203289;23;20426;-84
2022/03/15 10:12:33;;;;;;;6.27;5.50;;;11.60;92.30;;;;;;6188254;23;20513;-84
2022/03/15 10:15:11;;;;;;;8.63;6.87;;;11.80;92.50;;;;;;6189474;23;20414;-85
2022/03/15 10:17:46;;;;;;;8.97;6.17;;;11.70;92.40;;;;;;6188613;23;20391;-85
2022/03/15 10:20:18;;;;;;;13.30;6.60;;;11.70;92.80;;;;;;6195880;23;20429;-84
2022/03/15 10:22:53;;;;;;;7.43;6.20;;;11.80;92.60;;;;;;6193928;23;20421;-84
2022/03/15 10:25:21;;;;;;;6.50;5.60;;;11.70;92.50;;;;;;6188056;23;20758;-84
2022/03/15 10:27:53;;;;;;;7.93;6.23;;;11.60;92.90;;;;;;6204576;23;20443;-82
2022/03/15 10:30:20;;;;;;;8.60;6.60;;;11.60;92.90;;;;;;6192773;23;20426;-85
2022/03/15 10:32:48;;;;;;;9.43;6.17;;;11.80;93.10;;;;;;6193545;23;20492;-85
2022/03/15 10:35:19;;;;;;;6.90;6.10;;;12.10;92.70;;;;;;6205965;23;20425;-84
2022/03/15 10:37:46;;;;;;;7.00;5.80;;;12.30;92.40;;;;;;6208580;23;20394;-85
2022/03/15 10:40:13;;;;;;;7.17;5.40;;;12.20;91.90;;;;;;6193623;23;20426;-85
2022/03/15 10:42:41;;;;;;;8.80;5.70;;;12.00;92.10;;;;;;6187612;23;20401;-85
2022/03/15 10:45:19;;;;;;;7.13;5.70;;;12.00;92.30;;;;;;6190124;23;20406;-84
2022/03/15 10:47:50;;;;;;;8.43;5.57;;;11.90;93.00;;;;;;6189064;23;20450;-84
2022/03/15 10:50:19;;;;;;;5.10;4.60;;;11.90;93.10;;;;;;6186923;23;20442;-85
2022/03/15 10:52:46;;;;;;;8.27;5.73;;;11.80;93.20;;;;;;6185627;23;20441;-84
2022/03/15 10:55:16;;;;;;;7.70;5.83;;;11.80;94.10;;;;;;6193560;23;20409;-84
2022/03/15 10:57:51;;;;;;;7.13;5.57;;;11.80;94.70;;;;;;6209215;23;20406;-84
2022/03/15 11:00:20;;;;;;;10.20;5.70;;;11.70;95.20;;;;;;6195095;23;20437;-85
2022/03/15 11:02:48;;;;;;;6.97;5.37;;;11.60;95.30;;;;;;6209568;23;20406;-85
2022/03/15 11:05:30;;;;;;;10.33;6.17;;;11.60;95.40;;;;;;6209506;23;20398;-84
2022/03/15 11:07:57;;;;;;;8.60;6.97;;;11.70;95.80;;;;;;6189147;23;20426;-85
2022/03/15 11:10:24;;;;;;;7.87;6.27;;;11.70;95.90;;;;;;6188489;23;20424;-85
2022/03/15 11:12:57;;;;;;;13.23;6.20;;;11.80;95.70;;;;;;6188952;23;20414;-85
2022/03/15 11:15:28;;;;;;;10.20;6.67;;;11.70;95.60;;;;;;6188374;23;20422;-86
2022/03/15 11:18:01;;;;;;;8.93;6.80;;;11.70;96.70;;;;;;6191426;23;20763;-86
2022/03/15 11:20:34;;;;;;;9.20;6.20;;;11.70;97.30;;;;;;6213460;23;20449;-86
2022/03/15 11:23:02;;;;;;;8.70;6.50;;;11.60;97.30;;;;;;6209106;23;20390;-89
2022/03/15 11:25:35;;;;;;;8.07;7.20;;;11.60;97.30;;;;;;6208813;23;20489;-89
2022/03/15 11:28:04;;;;;;;7.53;6.80;;;11.60;98.00;;;;;;6189999;23;20840;-89
2022/03/15 11:30:32;;;;;;;11.80;8.40;;;11.70;98.00;;;;;;6190113;23;20429;-88
2022/03/15 11:33:02;;;;;;;8.50;6.13;;;11.60;98.10;;;;;;6188074;23;20418;-87
2022/03/15 11:35:31;;;;;;;11.33;7.50;;;11.60;98.70;;;;;;6198775;23;20397;-87
2022/03/15 11:38:00;;;;;;;10.03;7.40;;;11.60;98.70;;;;;;6190806;23;20410;-86
2022/03/15 11:40:27;;;;;;;15.50;10.20;;;11.50;99.20;;;;;;6188616;23;20737;-89
2022/03/15 11:43:09;;;;;;;10.00;7.60;;;11.40;99.10;;;;;;6188094;23;20433;-89
2022/03/15 11:45:41;;;;;;;13.63;9.53;;;11.40;99.20;;;;;;6188022;23;20386;-89
2022/03/15 11:48:13;;;;;;;12.67;10.83;;;11.30;99.60;;;;;;6187828;23;20496;-88
2022/03/15 11:50:50;;;;;;;14.40;9.43;;;11.20;99.80;;;;;;6186454;23;20434;-88
2022/03/15 11:53:28;;;;;;;16.97;9.93;;;11.20;99.90;;;;;;6187185;23;20402;-88
2022/03/15 11:56:02;;;;;;;15.00;11.33;;;11.20;99.90;;;;;;6201773;23;20414;-88
2022/03/15 11:58:30;;;;;;;13.90;10.80;;;11.10;99.90;;;;;;6199848;23;20393;-88
2022/03/15 12:01:10;;;;;;;15.50;10.00;;;11.10;99.90;;;;;;6203758;23;20437;-87
2022/03/15 12:03:47;;;;;;;12.77;11.30;;;11.10;99.90;;;;;;6187589;23;20391;-88
2022/03/15 12:06:19;;;;;;;13.10;9.80;;;11.10;99.90;;;;;;6186895;23;20481;-86
2022/03/15 12:08:52;;;;;;;14.23;8.40;;;11.00;99.90;;;;;;6187104;23;20489;-87
2022/03/15 12:11:32;;;;;;;15.67;8.73;;;11.00;99.90;;;;;;6186474;23;20506;-90
2022/03/15 12:14:05;;;;;;;14.10;10.50;;;11.00;99.90;;;;;;6187213;23;20400;-86
2022/03/15 12:16:37;;;;;;;11.83;8.83;;;11.00;99.90;;;;;;6186870;23;20394;-88
2022/03/15 12:19:15;;;;;;;12.93;9.67;;;10.90;99.90;;;;;;6186941;23;20880;-87
2022/03/15 12:21:53;;;;;;;9.53;8.23;;;10.80;99.90;;;;;;6202328;23;20457;-89
2022/03/15 12:24:28;;;;;;;13.07;9.07;;;10.70;99.90;;;;;;6187094;23;20399;-88
2022/03/15 12:27:00;;;;;;;11.90;9.00;;;10.70;99.90;;;;;;6189091;23;20473;-88
2022/03/15 12:29:27;;;;;;;11.93;8.60;;;10.70;99.90;;;;;;6202948;23;20426;-89
2022/03/15 12:31:55;;;;;;;15.87;9.80;;;10.70;99.90;;;;;;6208514;23;20432;-88
2022/03/15 12:34:45;;;;;;;13.70;9.80;;;10.60;99.90;;;;;;6201920;23;20398;-88
2022/03/15 12:37:13;;;;;;;13.40;8.97;;;10.50;99.90;;;;;;6210684;23;20394;-89
2022/03/15 12:39:40;;;;;;;11.43;9.23;;;10.50;99.90;;;;;;6212627;23;20409;-87
2022/03/15 12:42:09;;;;;;;11.77;9.00;;;10.40;99.90;;;;;;6212838;23;20495;-88
2022/03/15 12:44:40;;;;;;;13.57;10.60;;;10.40;99.90;;;;;;6212515;23;20411;-87
2022/03/15 12:47:15;;;;;;;15.43;10.93;;;10.50;99.90;;;;;;6209211;23;20404;-88
2022/03/15 12:49:42;;;;;;;13.57;9.93;;;10.50;99.90;;;;;;6206166;23;20417;-88
2022/03/15 12:52:11;;;;;;;11.10;9.40;;;10.40;99.90;;;;;;6212881;23;20481;-88